createdAt,value
2022-12-23T00:01:28.985Z,1.02
2022-12-23T00:04:01.606Z,0.90
2022-12-23T00:06:31.984Z,1.20
2022-12-23T00:09:04.863Z,0.95
2022-12-23T00:11:35.174Z,0.88
2022-12-23T00:14:21.446Z,1.13
2022-12-23T00:16:53.428Z,0.98
2022-12-23T00:19:24.128Z,0.85
2022-12-23T00:21:54.518Z,0.60
2022-12-23T00:24:27.495Z,0.60
2022-12-23T00:26:57.726Z,0.80
2022-12-23T00:29:27.957Z,0.70
2022-12-23T00:31:58.219Z,0.45
2022-12-23T00:34:28.671Z,0.47
2022-12-23T00:36:58.887Z,0.60
2022-12-23T00:39:44.166Z,0.57
2022-12-23T00:42:26.839Z,0.60
2022-12-23T00:45:16.004Z,0.57
2022-12-23T00:47:59.449Z,0.68
2022-12-23T00:50:30.132Z,0.38
2022-12-23T00:53:00.897Z,1.02
2022-12-23T00:55:33.965Z,0.50
2022-12-23T00:58:04.296Z,0.40
2022-12-23T01:00:47.140Z,0.40
2022-12-23T01:03:30.687Z,0.68
2022-12-23T01:06:01.707Z,0.45
2022-12-23T01:08:32.323Z,0.30
2022-12-23T01:11:09.253Z,0.40
2022-12-23T01:16:17.347Z,0.22
2022-12-23T01:18:48.380Z,0.40
2022-12-23T01:21:18.828Z,0.20
2022-12-23T01:23:49.106Z,0.60
2022-12-23T01:26:22.027Z,0.30
2022-12-23T01:28:55.820Z,0.20
2022-12-23T01:31:26.461Z,0.40
2022-12-23T01:33:57.960Z,0.60
2022-12-23T01:36:28.431Z,0.50
2022-12-23T01:38:58.872Z,0.30
2022-12-23T01:41:46.710Z,0.32
2022-12-23T01:44:52.100Z,0.30
2022-12-23T01:47:37.655Z,0.50
2022-12-23T01:50:14.464Z,0.60
2022-12-23T01:52:50.583Z,0.50
2022-12-23T01:55:23.694Z,0.60
2022-12-23T01:57:59.148Z,0.50
2022-12-23T02:00:42.101Z,0.70
2022-12-23T02:03:25.046Z,0.45
2022-12-23T02:06:16.893Z,0.63
2022-12-23T02:08:59.702Z,0.50
2022-12-23T02:11:46.158Z,0.40
2022-12-23T02:14:45.725Z,0.32
2022-12-23T02:17:23.592Z,0.60
2022-12-23T02:20:22.466Z,0.60
2022-12-23T02:23:27.435Z,0.73
2022-12-23T02:26:19.558Z,0.50
2022-12-23T02:29:13.480Z,0.70
2022-12-23T02:31:53.833Z,0.80
2022-12-23T02:34:30.341Z,0.60
2022-12-23T02:37:08.044Z,0.98
2022-12-23T02:39:45.312Z,0.50
2022-12-23T02:42:19.102Z,1.15
2022-12-23T02:44:57.128Z,0.90
2022-12-23T02:47:34.847Z,1.25
2022-12-23T02:50:12.370Z,0.90
2022-12-23T02:52:44.222Z,0.82
2022-12-23T02:55:19.009Z,1.10
2022-12-23T02:57:52.795Z,1.30
2022-12-23T03:00:24.656Z,0.70
2022-12-23T03:02:57.752Z,1.08
2022-12-23T03:05:29.866Z,1.58
2022-12-23T03:08:03.549Z,1.33
2022-12-23T03:10:43.135Z,1.05
2022-12-23T03:13:25.812Z,1.27
2022-12-23T03:16:06.739Z,0.80
2022-12-23T03:18:49.640Z,1.08
2022-12-23T03:21:27.357Z,1.00
2022-12-23T03:24:05.626Z,0.80
2022-12-23T03:26:45.379Z,1.00
2022-12-23T03:29:20.406Z,1.52
2022-12-23T03:31:52.475Z,1.20
2022-12-23T03:34:30.391Z,1.77
2022-12-23T03:37:03.930Z,1.20
2022-12-23T03:39:38.701Z,1.27
2022-12-23T03:42:13.801Z,1.85
2022-12-23T03:45:19.289Z,1.70
2022-12-23T03:47:46.351Z,1.30
2022-12-23T03:50:22.561Z,1.88
2022-12-23T03:52:58.140Z,1.88
2022-12-23T03:55:33.767Z,1.55
2022-12-23T03:58:12.826Z,1.98
2022-12-23T04:00:51.490Z,1.58
2022-12-23T04:03:27.064Z,1.58
2022-12-23T04:06:03.253Z,1.55
2022-12-23T04:08:36.434Z,1.42
2022-12-23T04:11:07.944Z,1.55
2022-12-23T04:13:38.308Z,1.50
2022-12-23T04:16:09.646Z,1.92
2022-12-23T04:18:39.964Z,1.60
2022-12-23T04:21:12.767Z,1.27
2022-12-23T04:23:43.121Z,1.60
2022-12-23T04:26:13.355Z,1.40
2022-12-23T04:28:43.767Z,1.80
2022-12-23T04:31:14.203Z,1.30
2022-12-23T04:33:44.536Z,1.23
2022-12-23T04:36:17.482Z,1.23
2022-12-23T04:38:47.979Z,1.40
2022-12-23T04:41:18.168Z,0.98
2022-12-23T04:43:52.979Z,1.10
2022-12-23T04:46:24.028Z,1.30
2022-12-23T04:48:54.326Z,1.08
2022-12-23T04:51:27.241Z,1.20
2022-12-23T04:53:57.799Z,0.90
2022-12-23T04:56:28.153Z,0.85
2022-12-23T04:58:58.380Z,1.20
2022-12-23T05:01:28.983Z,1.13
2022-12-23T05:03:59.469Z,0.90
2022-12-23T05:06:32.618Z,0.52
2022-12-23T05:09:03.171Z,0.70
2022-12-23T05:11:38.521Z,0.82
2022-12-23T05:14:12.798Z,0.85
2022-12-23T05:16:43.105Z,0.60
2022-12-23T05:19:13.719Z,0.80
2022-12-23T05:21:46.523Z,0.60
2022-12-23T05:24:16.774Z,0.77
2022-12-23T05:26:55.680Z,1.00
2022-12-23T05:29:29.935Z,0.90
2022-12-23T05:32:00.268Z,0.60
2022-12-23T05:34:30.824Z,0.80
2022-12-23T05:37:03.776Z,0.70
2022-12-23T05:39:34.009Z,0.60
2022-12-23T05:42:04.214Z,0.98
2022-12-23T05:44:34.776Z,0.73
2022-12-23T05:47:05.351Z,0.70
2022-12-23T05:49:35.621Z,0.80
2022-12-23T05:52:08.642Z,0.93
2022-12-23T05:54:38.913Z,1.23
2022-12-23T05:57:09.163Z,0.93
2022-12-23T05:59:39.508Z,1.20
2022-12-23T06:02:10.038Z,1.30
2022-12-23T06:04:40.424Z,1.08
2022-12-23T06:07:13.320Z,1.25
2022-12-23T06:09:43.549Z,1.20
2022-12-23T06:12:13.882Z,1.10
2022-12-23T06:14:44.132Z,1.55
2022-12-23T06:17:14.609Z,1.35
2022-12-23T06:19:44.931Z,1.42
2022-12-23T06:22:17.975Z,1.00
2022-12-23T06:24:48.301Z,1.30
2022-12-23T06:27:18.553Z,1.20
2022-12-23T06:29:48.889Z,1.20
2022-12-23T06:32:19.197Z,1.30
2022-12-23T06:34:50.501Z,1.67
2022-12-23T06:37:23.492Z,1.25
2022-12-23T06:39:53.755Z,1.30
2022-12-23T06:42:24.029Z,1.02
2022-12-23T06:44:54.522Z,1.08
2022-12-23T06:47:24.778Z,1.58
2022-12-23T06:49:55.075Z,1.00
2022-12-23T06:52:28.032Z,1.00
2022-12-23T06:54:58.680Z,0.60
2022-12-23T06:57:28.995Z,1.35
2022-12-23T06:59:59.210Z,0.98
2022-12-23T07:02:29.632Z,0.63
2022-12-23T07:04:59.950Z,0.40
2022-12-23T07:07:33.041Z,0.75
2022-12-23T07:10:03.283Z,0.95
2022-12-23T07:12:34.122Z,0.70
2022-12-23T07:15:04.493Z,0.60
2022-12-23T07:17:34.832Z,0.40
2022-12-23T07:20:05.060Z,0.40
2022-12-23T07:22:37.973Z,0.50
2022-12-23T07:25:09.369Z,0.38
2022-12-23T07:27:39.691Z,0.82
2022-12-23T07:30:11.935Z,0.50
2022-12-23T07:32:42.472Z,0.50
2022-12-23T07:35:13.024Z,0.35
2022-12-23T07:37:45.981Z,1.27
2022-12-23T07:40:16.519Z,0.63
2022-12-23T07:42:47.286Z,0.60
2022-12-23T07:45:17.709Z,0.60
2022-12-23T07:47:48.506Z,0.63
2022-12-23T07:50:18.822Z,0.77
2022-12-23T07:52:51.748Z,0.75
2022-12-23T07:55:22.751Z,0.73
2022-12-23T07:57:54.406Z,0.70
2022-12-23T08:00:25.490Z,0.82
2022-12-23T08:02:55.924Z,0.95
2022-12-23T08:05:26.406Z,1.10
2022-12-23T08:07:59.472Z,1.10
2022-12-23T08:10:29.736Z,0.90
2022-12-23T08:13:03.389Z,1.23
2022-12-23T08:15:33.591Z,1.23
2022-12-23T08:18:03.878Z,1.25
2022-12-23T08:20:34.121Z,1.10
2022-12-23T08:23:06.984Z,1.10
2022-12-23T08:25:37.247Z,1.45
2022-12-23T08:28:07.855Z,0.85
2022-12-23T08:30:38.138Z,1.40
2022-12-23T08:33:08.573Z,1.65
2022-12-23T08:35:38.873Z,1.30
2022-12-23T08:38:11.994Z,1.77
2022-12-23T08:40:44.899Z,2.05
2022-12-23T08:43:16.022Z,2.05
2022-12-23T08:45:46.445Z,1.60
2022-12-23T08:48:17.089Z,2.17
2022-12-23T08:50:49.402Z,1.35
2022-12-23T08:53:22.378Z,2.08
2022-12-23T08:55:52.758Z,1.45
2022-12-23T08:58:23.138Z,1.45
2022-12-23T09:00:53.494Z,2.55
2022-12-23T09:03:24.038Z,2.17
2022-12-23T09:05:54.407Z,1.63
2022-12-23T09:08:27.461Z,1.80
2022-12-23T09:10:57.740Z,2.08
2022-12-23T09:13:35.084Z,1.95
2022-12-23T09:16:06.212Z,2.65
2022-12-23T09:18:36.664Z,3.13
2022-12-23T09:21:09.096Z,2.05
2022-12-23T09:23:42.136Z,2.47
2022-12-23T09:26:13.718Z,3.45
2022-12-23T09:28:44.030Z,3.13
2022-12-23T09:31:15.450Z,3.40
2022-12-23T09:33:45.889Z,3.00
2022-12-23T09:36:16.246Z,3.47
2022-12-23T09:38:49.583Z,3.05
2022-12-23T09:41:36.362Z,3.42
2022-12-23T09:44:29.405Z,3.90
2022-12-23T09:47:03.975Z,3.38
2022-12-23T09:49:35.171Z,3.92
2022-12-23T09:52:08.617Z,2.60
2022-12-23T09:54:47.578Z,2.85
2022-12-23T09:57:24.368Z,2.78
2022-12-23T10:00:06.507Z,3.30
2022-12-23T10:02:55.100Z,2.40
2022-12-23T10:05:35.067Z,2.50
2022-12-23T10:08:10.645Z,3.03
2022-12-23T10:10:47.603Z,2.13
2022-12-23T10:15:54.763Z,2.60
2022-12-23T10:18:29.759Z,2.50
2022-12-23T10:21:06.226Z,2.33
2022-12-23T10:23:40.870Z,1.73
2022-12-23T10:26:23.239Z,2.15
2022-12-23T10:28:57.214Z,2.58
2022-12-23T10:31:40.825Z,2.42
2022-12-23T10:34:20.413Z,2.38
2022-12-23T10:36:59.462Z,2.78
2022-12-23T10:39:39.933Z,2.20
2022-12-23T10:42:22.231Z,1.85
2022-12-23T10:45:27.214Z,1.77
2022-12-23T10:48:13.648Z,1.85
2022-12-23T10:51:01.272Z,2.92
2022-12-23T10:53:40.116Z,1.58
2022-12-23T10:56:12.006Z,2.58
2022-12-23T10:58:48.265Z,2.40
2022-12-23T11:01:26.438Z,1.77
2022-12-23T11:04:05.994Z,1.92
2022-12-23T11:06:41.802Z,2.20
2022-12-23T11:09:19.571Z,1.67
2022-12-23T11:12:00.501Z,2.00
2022-12-23T11:14:40.247Z,2.85
2022-12-23T11:17:23.094Z,2.03
2022-12-23T11:20:14.465Z,2.10
2022-12-23T11:22:52.057Z,2.42
2022-12-23T11:25:32.517Z,2.72
2022-12-23T11:28:08.056Z,1.80
2022-12-23T11:30:55.437Z,2.63
2022-12-23T11:33:29.264Z,4.63
2022-12-23T11:36:09.250Z,4.75
2022-12-23T11:38:50.920Z,4.00
2022-12-23T11:41:25.363Z,5.28
2022-12-23T11:44:03.639Z,3.15
2022-12-23T11:46:38.014Z,2.85
2022-12-23T11:49:19.374Z,3.92
2022-12-23T11:51:51.778Z,3.08
2022-12-23T11:54:23.685Z,3.22
2022-12-23T11:56:56.361Z,3.05
2022-12-23T11:59:36.671Z,6.70
2022-12-23T12:02:18.155Z,4.50
2022-12-23T12:04:59.180Z,4.32
2022-12-23T12:07:30.361Z,3.08
2022-12-23T12:10:02.996Z,3.00
2022-12-23T12:12:33.671Z,3.70
2022-12-23T12:15:04.070Z,3.55
2022-12-23T12:17:43.807Z,5.18
2022-12-23T12:20:21.049Z,4.03
2022-12-23T12:22:54.820Z,4.53
2022-12-23T12:25:38.121Z,3.88
2022-12-23T12:28:15.822Z,4.15
2022-12-23T12:30:52.094Z,3.30
2022-12-23T12:33:31.765Z,4.78
2022-12-23T12:36:12.906Z,4.50
2022-12-23T12:38:43.417Z,5.18
2022-12-23T12:41:20.793Z,4.43
2022-12-23T12:43:55.565Z,4.45
2022-12-23T12:46:33.632Z,4.18
2022-12-23T12:49:14.114Z,3.85
2022-12-23T12:51:51.193Z,6.72
2022-12-23T12:54:28.656Z,4.88
2022-12-23T12:57:02.347Z,6.63
2022-12-23T12:59:36.452Z,5.45
2022-12-23T13:02:25.807Z,5.18
2022-12-23T13:05:30.143Z,5.13
2022-12-23T13:08:15.489Z,4.15
2022-12-23T13:10:49.042Z,4.38
2022-12-23T13:13:31.224Z,5.05
2022-12-23T13:16:06.352Z,5.53
2022-12-23T13:18:45.149Z,5.25
2022-12-23T13:21:26.379Z,5.28
2022-12-23T13:24:04.389Z,4.97
2022-12-23T13:26:40.681Z,4.75
2022-12-23T13:29:41.830Z,4.60
2022-12-23T13:32:26.689Z,5.97
2022-12-23T13:35:04.158Z,5.20
2022-12-23T13:37:47.458Z,5.13
2022-12-23T13:40:30.336Z,5.25
2022-12-23T13:43:05.457Z,5.95
2022-12-23T13:45:39.470Z,5.35
2022-12-23T13:48:27.109Z,5.30
2022-12-23T13:51:02.679Z,5.60
2022-12-23T13:53:50.754Z,5.20
2022-12-23T13:56:29.945Z,5.00
2022-12-23T13:59:01.188Z,5.38
2022-12-23T14:01:46.091Z,5.65
2022-12-23T14:04:35.840Z,6.05
2022-12-23T14:07:09.894Z,5.13
2022-12-23T14:09:42.933Z,5.90
2022-12-23T14:12:19.397Z,5.40
2022-12-23T14:15:13.296Z,5.38
2022-12-23T14:17:57.152Z,5.45
2022-12-23T14:20:40.765Z,5.30
2022-12-23T14:23:27.061Z,7.47
2022-12-23T14:26:21.855Z,6.25
2022-12-23T14:29:12.725Z,5.90
2022-12-23T14:31:45.482Z,7.40
2022-12-23T14:34:31.714Z,5.80
2022-12-23T14:37:18.008Z,4.78
2022-12-23T14:39:48.923Z,4.55
2022-12-23T14:42:37.534Z,4.68
2022-12-23T14:45:40.380Z,5.68
2022-12-23T14:48:40.468Z,5.32
2022-12-23T14:51:26.593Z,5.20
2022-12-23T14:54:16.563Z,6.03
2022-12-23T14:57:08.345Z,6.00
2022-12-23T14:59:51.498Z,6.15
2022-12-23T15:02:28.820Z,5.57
2022-12-23T15:05:05.608Z,5.47
2022-12-23T15:07:39.951Z,6.15
2022-12-23T15:10:20.276Z,6.72
2022-12-23T15:12:57.668Z,5.93
2022-12-23T15:15:33.698Z,5.75
2022-12-23T15:18:18.714Z,6.53
2022-12-23T15:21:02.553Z,6.13
2022-12-23T15:23:38.665Z,5.73
2022-12-23T15:26:15.811Z,5.18
2022-12-23T15:28:54.188Z,5.85
2022-12-23T15:31:33.906Z,6.05
2022-12-23T15:34:15.049Z,5.22
2022-12-23T15:36:48.731Z,5.65
2022-12-23T15:39:23.093Z,5.72
2022-12-23T15:41:53.473Z,5.60
2022-12-23T15:44:25.977Z,6.85
2022-12-23T15:46:59.475Z,5.63
2022-12-23T15:49:30.281Z,5.47
2022-12-23T15:52:09.833Z,5.10
2022-12-23T15:54:47.452Z,5.15
2022-12-23T15:57:22.324Z,6.05
2022-12-23T15:59:53.125Z,6.03
2022-12-23T16:05:31.435Z,5.65
2022-12-23T16:08:29.092Z,6.97
2022-12-23T16:11:08.131Z,6.15
2022-12-23T16:13:46.583Z,5.60
2022-12-23T16:16:23.089Z,5.90
2022-12-23T16:18:56.014Z,6.10
2022-12-23T16:21:30.654Z,6.07
2022-12-23T16:24:01.745Z,5.25
2022-12-23T16:26:32.191Z,6.72
2022-12-23T16:29:04.985Z,6.70
2022-12-23T16:31:35.941Z,6.05
2022-12-23T16:34:12.007Z,5.68
2022-12-23T16:36:42.634Z,7.00
2022-12-23T16:39:22.723Z,5.97
2022-12-23T16:41:53.243Z,6.10
2022-12-23T16:44:23.550Z,5.88
2022-12-23T16:46:54.560Z,5.95
2022-12-23T16:49:33.445Z,5.70
2022-12-23T16:52:05.529Z,6.55
2022-12-23T16:54:36.173Z,4.93
2022-12-23T16:57:06.744Z,6.00
2022-12-23T16:59:37.696Z,7.00
2022-12-23T17:02:20.290Z,6.00
2022-12-23T17:04:54.173Z,6.53
2022-12-23T17:07:27.042Z,5.45
2022-12-23T17:09:57.941Z,5.80
2022-12-23T17:12:28.511Z,5.50
2022-12-23T17:15:00.510Z,7.00
2022-12-23T17:17:33.443Z,6.60
2022-12-23T17:20:07.394Z,6.47
2022-12-23T17:22:40.719Z,7.70
2022-12-23T17:25:15.027Z,6.07
2022-12-23T17:27:46.737Z,7.97
2022-12-23T17:30:23.523Z,6.38
2022-12-23T17:32:58.187Z,6.00
2022-12-23T17:35:31.622Z,6.10
2022-12-23T17:38:01.909Z,7.68
2022-12-23T17:40:34.092Z,7.15
2022-12-23T17:43:05.073Z,8.20
2022-12-23T17:45:35.620Z,6.72
2022-12-23T17:48:08.292Z,6.53
2022-12-23T17:50:44.954Z,8.80
2022-12-23T17:53:17.376Z,8.80
2022-12-23T17:55:50.458Z,9.10
2022-12-23T17:58:23.747Z,6.00
2022-12-23T18:00:54.552Z,6.32
2022-12-23T18:03:26.438Z,6.72
2022-12-23T18:06:01.956Z,7.35
2022-12-23T18:08:32.786Z,7.37
2022-12-23T18:11:03.108Z,7.30
2022-12-23T18:13:36.024Z,7.47
2022-12-23T18:16:06.536Z,7.43
2022-12-23T18:18:45.872Z,6.40
2022-12-23T18:21:25.445Z,6.93
2022-12-23T18:23:57.923Z,7.20
2022-12-23T18:26:29.183Z,7.15
2022-12-23T18:28:59.529Z,10.77
2022-12-23T18:31:30.213Z,6.93
2022-12-23T18:34:00.685Z,6.70
2022-12-23T18:36:35.853Z,6.00
2022-12-23T18:39:06.457Z,6.90
2022-12-23T18:41:36.677Z,7.25
2022-12-23T18:44:07.220Z,7.22
2022-12-23T18:46:37.457Z,6.43
2022-12-23T18:49:07.769Z,5.70
2022-12-23T18:51:40.689Z,6.88
2022-12-23T18:54:15.830Z,6.68
2022-12-23T18:56:46.912Z,6.55
2022-12-23T18:59:24.237Z,7.85
2022-12-23T19:02:00.439Z,6.63
2022-12-23T19:04:31.035Z,5.68
2022-12-23T19:07:04.077Z,8.13
2022-12-23T19:09:34.421Z,6.35
2022-12-23T19:12:05.824Z,6.55
2022-12-23T19:14:36.547Z,7.25
2022-12-23T19:17:06.968Z,8.40
2022-12-23T19:19:37.221Z,7.15
2022-12-23T19:22:10.280Z,7.47
2022-12-23T19:24:58.260Z,6.55
2022-12-23T19:27:31.165Z,6.68
2022-12-23T19:30:02.142Z,6.45
2022-12-23T19:32:32.903Z,7.40
2022-12-23T19:35:03.239Z,7.55
2022-12-23T19:37:38.461Z,7.40
2022-12-23T19:40:10.478Z,6.28
2022-12-23T19:42:41.306Z,7.03
2022-12-23T19:45:13.138Z,7.03
2022-12-23T19:47:43.463Z,7.53
2022-12-23T19:50:15.162Z,8.70
2022-12-23T19:52:48.312Z,8.02
2022-12-23T19:55:18.806Z,7.75
2022-12-23T19:57:49.251Z,7.57
2022-12-23T20:00:19.988Z,8.88
2022-12-23T20:02:55.083Z,7.88
2022-12-23T20:05:28.904Z,7.40
2022-12-23T20:08:02.935Z,8.20
2022-12-23T20:10:33.528Z,8.73
2022-12-23T20:13:03.796Z,9.55
2022-12-23T20:15:34.188Z,8.43
2022-12-23T20:18:04.607Z,7.75
2022-12-23T20:20:36.309Z,8.48
2022-12-23T20:23:09.229Z,8.18
2022-12-23T20:25:39.673Z,7.50
2022-12-23T20:28:10.203Z,8.52
2022-12-23T20:30:42.752Z,7.97
2022-12-23T21:17:34.861Z,7.25
2022-12-23T21:20:08.024Z,8.82
2022-12-23T21:22:38.489Z,7.97
2022-12-23T21:25:09.706Z,8.13
2022-12-23T21:27:40.037Z,8.60
2022-12-23T21:30:11.737Z,8.50
2022-12-23T21:32:44.509Z,8.45
2022-12-23T21:35:14.889Z,6.85
2022-12-23T21:37:45.152Z,7.25
2022-12-23T21:40:16.411Z,7.95
2022-12-23T21:42:46.692Z,7.57
2022-12-23T21:45:17.469Z,7.07
2022-12-23T21:47:50.357Z,7.72
2022-12-23T21:50:20.641Z,7.57
2022-12-23T21:52:51.141Z,7.00
2022-12-23T21:55:21.467Z,8.43
2022-12-23T21:57:51.716Z,7.43
2022-12-23T22:00:22.479Z,8.60
2022-12-23T22:02:55.412Z,7.75
2022-12-23T22:05:25.653Z,7.47
2022-12-23T22:07:56.033Z,7.10
2022-12-23T22:10:26.224Z,6.78
2022-12-23T22:12:56.608Z,7.88
2022-12-23T22:15:26.843Z,7.30
2022-12-23T22:17:59.715Z,9.25
2022-12-23T22:20:30.131Z,8.18
2022-12-23T22:23:00.445Z,8.18
2022-12-23T22:25:32.813Z,8.35
2022-12-23T22:28:03.221Z,7.13
2022-12-23T22:30:33.744Z,6.95
2022-12-23T22:33:06.688Z,6.72
2022-12-23T22:35:36.938Z,8.68
2022-12-23T22:38:07.280Z,6.95
2022-12-23T22:40:37.532Z,7.85
2022-12-23T22:43:07.838Z,8.80
2022-12-23T22:45:38.160Z,7.60
2022-12-23T22:48:11.551Z,7.88
2022-12-23T22:50:42.232Z,7.95
2022-12-23T22:53:16.575Z,7.05
2022-12-23T22:55:46.874Z,5.97
2022-12-23T22:58:17.235Z,8.38
2022-12-23T23:00:47.744Z,7.00
2022-12-23T23:03:20.608Z,6.13
2022-12-23T23:06:00.052Z,7.18
2022-12-23T23:08:30.800Z,6.22
2022-12-23T23:11:03.010Z,6.22
2022-12-23T23:13:34.924Z,7.10
2022-12-23T23:16:06.043Z,8.43
2022-12-23T23:18:39.445Z,7.10
2022-12-23T23:21:10.224Z,6.30
2022-12-23T23:23:40.520Z,8.00
2022-12-23T23:26:11.243Z,6.28
2022-12-23T23:28:41.826Z,7.00
2022-12-23T23:34:05.750Z,7.53
2022-12-23T23:36:36.023Z,6.32
2022-12-23T23:39:06.316Z,6.57
2022-12-23T23:41:36.629Z,7.53
2022-12-23T23:44:07.114Z,5.82
2022-12-23T23:46:37.575Z,6.97
2022-12-23T23:49:10.694Z,6.18
2022-12-23T23:51:41.744Z,9.50
2022-12-23T23:54:12.345Z,7.57
2022-12-23T23:56:42.634Z,6.78
2022-12-23T23:59:12.927Z,6.10
